createdAt,value
2022-11-05T00:00:05.925Z,8.30
2022-11-05T00:02:51.105Z,8.30
2022-11-05T00:05:36.318Z,8.40
2022-11-05T00:08:21.481Z,8.40
2022-11-05T00:10:48.109Z,8.40
2022-11-05T00:13:33.477Z,8.50
2022-11-05T00:16:18.775Z,8.50
2022-11-05T00:19:05.388Z,8.50
2022-11-05T00:21:51.011Z,8.50
2022-11-05T00:24:36.410Z,8.50
2022-11-05T00:27:03.061Z,8.60
2022-11-05T00:29:29.697Z,7.90
2022-11-05T00:31:56.327Z,8.60
2022-11-05T00:34:22.927Z,8.60
2022-11-05T00:36:49.543Z,8.60
2022-11-05T00:39:16.152Z,8.60
2022-11-05T00:41:42.780Z,8.60
2022-11-05T00:44:27.987Z,8.60
2022-11-05T00:47:14.592Z,8.60
2022-11-05T00:49:41.227Z,8.60
2022-11-05T00:52:46.415Z,8.60
2022-11-05T00:55:13.059Z,8.60
2022-11-05T00:57:39.771Z,8.60
2022-11-05T01:00:06.753Z,8.60
2022-11-05T01:02:33.488Z,8.60
2022-11-05T01:05:00.254Z,8.70
2022-11-05T01:07:26.846Z,8.60
2022-11-05T01:09:53.475Z,8.60
2022-11-05T01:12:20.090Z,8.60
2022-11-05T01:14:46.739Z,8.60
2022-11-05T01:17:13.368Z,8.50
2022-11-05T01:19:40.012Z,8.50
2022-11-05T01:22:06.730Z,8.50
2022-11-05T01:24:33.421Z,8.50
2022-11-05T01:27:00.075Z,8.50
2022-11-05T01:29:26.730Z,8.50
2022-11-05T01:31:53.348Z,8.50
2022-11-05T01:34:19.953Z,8.60
2022-11-05T01:36:46.647Z,8.50
2022-11-05T01:39:13.385Z,8.50
2022-11-05T01:41:40.065Z,8.60
2022-11-05T01:44:26.673Z,8.50
2022-11-05T01:46:53.318Z,8.60
2022-11-05T01:49:26.693Z,8.50
2022-11-05T01:51:53.325Z,8.50
2022-11-05T01:54:20.452Z,8.50
2022-11-05T01:56:48.339Z,8.40
2022-11-05T01:59:19.365Z,8.40
2022-11-05T02:01:46.181Z,8.30
2022-11-05T02:04:14.788Z,8.30
2022-11-05T02:06:46.552Z,8.30
2022-11-05T02:09:15.587Z,8.30
2022-11-05T02:11:42.225Z,8.30
2022-11-05T02:14:08.893Z,8.20
2022-11-05T02:16:43.676Z,8.20
2022-11-05T02:19:36.622Z,8.20
2022-11-05T02:22:21.824Z,8.20
2022-11-05T02:25:07.363Z,8.10
2022-11-05T02:27:45.677Z,8.10
2022-11-05T02:30:24.644Z,8.10
2022-11-05T02:32:54.462Z,8.00
2022-11-05T02:35:44.254Z,8.00
2022-11-05T02:38:17.225Z,8.00
2022-11-05T02:40:46.932Z,8.00
2022-11-05T02:43:16.570Z,7.90
2022-11-05T02:45:47.730Z,7.90
2022-11-05T02:48:19.290Z,7.90
2022-11-05T02:51:04.735Z,7.90
2022-11-05T02:53:31.340Z,7.90
2022-11-05T02:56:13.122Z,7.90
2022-11-05T02:58:39.747Z,7.90
2022-11-05T03:01:07.118Z,7.90
2022-11-05T03:03:37.893Z,7.90
2022-11-05T03:06:04.487Z,7.90
2022-11-05T03:08:36.067Z,7.90
2022-11-05T03:11:06.015Z,7.90
2022-11-05T03:13:52.920Z,7.90
2022-11-05T03:16:26.474Z,7.90
2022-11-05T03:18:59.268Z,7.90
2022-11-05T03:21:47.722Z,8.00
2022-11-05T03:24:19.174Z,7.90
2022-11-05T03:26:45.801Z,8.00
2022-11-05T03:29:14.518Z,8.00
2022-11-05T03:31:41.373Z,8.00
2022-11-05T03:34:08.022Z,8.00
2022-11-05T03:36:37.740Z,8.00
2022-11-05T03:39:05.701Z,8.10
2022-11-05T03:41:32.993Z,8.10
2022-11-05T03:44:00.382Z,8.10
2022-11-05T03:46:31.953Z,8.10
2022-11-05T03:48:58.968Z,8.20
2022-11-05T03:51:29.173Z,8.20
2022-11-05T03:53:56.713Z,8.20
2022-11-05T03:56:42.234Z,8.30
2022-11-05T03:59:09.138Z,8.20
2022-11-05T04:01:36.667Z,8.20
2022-11-05T04:04:04.458Z,8.30
2022-11-05T04:06:49.846Z,8.30
2022-11-05T04:09:34.910Z,8.30
2022-11-05T04:12:20.123Z,8.30
2022-11-05T04:14:46.788Z,8.30
2022-11-05T04:17:13.416Z,8.30
2022-11-05T04:20:01.837Z,8.30
2022-11-05T04:22:47.900Z,8.30
2022-11-05T04:25:14.732Z,8.30
2022-11-05T04:27:41.429Z,8.20
2022-11-05T04:30:20.580Z,8.30
2022-11-05T04:33:14.125Z,8.30
2022-11-05T04:35:47.776Z,8.30
2022-11-05T04:38:18.194Z,8.30
2022-11-05T04:40:44.985Z,8.30
2022-11-05T04:43:15.580Z,8.30
2022-11-05T04:45:42.292Z,8.30
2022-11-05T04:48:10.130Z,8.20
2022-11-05T04:50:36.749Z,8.20
2022-11-05T04:53:03.385Z,8.20
2022-11-05T04:55:30.034Z,8.20
2022-11-05T04:57:56.679Z,8.20
2022-11-05T05:00:23.466Z,8.20
2022-11-05T05:02:50.274Z,8.20
2022-11-05T05:05:17.330Z,8.20
2022-11-05T05:07:44.031Z,8.10
2022-11-05T05:10:10.797Z,8.10
2022-11-05T05:12:37.442Z,8.10
2022-11-05T05:15:04.271Z,8.10
2022-11-05T05:17:30.929Z,8.10
2022-11-05T05:20:16.322Z,8.00
2022-11-05T05:22:42.960Z,8.00
2022-11-05T05:25:09.714Z,8.10
2022-11-05T05:27:36.393Z,8.00
2022-11-05T05:30:03.502Z,8.00
2022-11-05T05:32:30.179Z,7.90
2022-11-05T05:34:56.890Z,7.90
2022-11-05T05:37:23.570Z,7.90
2022-11-05T05:39:50.302Z,8.00
2022-11-05T05:42:17.002Z,8.00
2022-11-05T05:44:43.753Z,7.90
2022-11-05T05:47:10.474Z,8.00
2022-11-05T05:49:37.134Z,8.00
2022-11-05T05:52:03.899Z,8.00
2022-11-05T05:54:33.363Z,8.00
2022-11-05T05:57:00.902Z,8.00
2022-11-05T05:59:27.584Z,8.00
2022-11-05T06:01:54.757Z,8.00
2022-11-05T06:04:21.447Z,8.00
2022-11-05T06:06:48.273Z,8.00
2022-11-05T06:09:15.034Z,8.00
2022-11-05T06:11:41.706Z,8.00
2022-11-05T06:14:12.206Z,8.00
2022-11-05T06:16:39.148Z,8.00
2022-11-05T06:19:06.362Z,8.00
2022-11-05T06:21:33.141Z,8.00
2022-11-05T06:24:00.012Z,8.00
2022-11-05T06:26:26.654Z,8.00
2022-11-05T06:28:53.346Z,8.00
2022-11-05T06:31:20.076Z,8.10
2022-11-05T06:33:47.343Z,8.00
2022-11-05T06:36:14.679Z,8.10
2022-11-05T06:38:41.365Z,8.10
2022-11-05T06:41:10.474Z,8.20
2022-11-05T06:43:37.673Z,8.10
2022-11-05T06:46:04.595Z,8.20
2022-11-05T06:48:31.243Z,8.20
2022-11-05T06:50:57.958Z,8.30
2022-11-05T06:53:24.704Z,8.30
2022-11-05T06:55:51.343Z,8.20
2022-11-05T06:58:17.993Z,8.30
2022-11-05T07:00:44.871Z,8.30
2022-11-05T07:03:11.803Z,8.30
2022-11-05T07:05:40.744Z,8.40
2022-11-05T07:08:07.486Z,8.40
2022-11-05T07:10:34.085Z,8.40
2022-11-05T07:13:05.178Z,8.30
2022-11-05T07:15:34.604Z,8.40
2022-11-05T07:18:01.336Z,8.40
2022-11-05T07:20:33.259Z,8.40
2022-11-05T07:23:04.474Z,8.40
2022-11-05T07:25:31.548Z,8.50
2022-11-05T07:27:58.401Z,8.50
2022-11-05T07:30:25.060Z,8.50
2022-11-05T07:32:51.675Z,8.50
2022-11-05T07:35:18.330Z,8.50
2022-11-05T07:37:45.594Z,8.60
2022-11-05T07:40:13.747Z,8.60
2022-11-05T07:42:47.573Z,8.60
2022-11-05T07:45:14.269Z,8.70
2022-11-05T07:48:00.489Z,8.80
2022-11-05T07:50:34.325Z,8.90
2022-11-05T07:53:05.203Z,9.10
2022-11-05T07:55:31.890Z,9.10
2022-11-05T07:57:58.578Z,9.20
2022-11-05T08:00:25.532Z,9.10
2022-11-05T08:03:02.335Z,9.10
2022-11-05T08:05:37.203Z,9.10
2022-11-05T08:08:04.156Z,9.10
2022-11-05T08:10:30.807Z,9.20
2022-11-05T08:12:57.491Z,9.30
2022-11-05T08:15:24.177Z,9.40
2022-11-05T08:17:50.900Z,9.50
2022-11-05T08:20:17.677Z,9.60
2022-11-05T08:22:44.680Z,9.70
2022-11-05T08:25:11.643Z,9.80
2022-11-05T08:27:38.425Z,9.90
2022-11-05T08:30:05.548Z,10.00
2022-11-05T08:32:32.234Z,10.10
2022-11-05T08:34:59.068Z,10.10
2022-11-05T08:37:25.706Z,10.20
2022-11-05T08:39:52.380Z,10.30
2022-11-05T08:42:19.027Z,10.40
2022-11-05T08:44:45.650Z,10.50
2022-11-05T08:47:12.256Z,10.50
2022-11-05T08:49:38.905Z,10.60
2022-11-05T08:52:05.570Z,10.60
2022-11-05T08:54:32.213Z,10.60
2022-11-05T08:56:58.879Z,10.70
2022-11-05T08:59:25.559Z,10.70
2022-11-05T09:01:53.160Z,10.70
2022-11-05T09:04:20.056Z,10.80
2022-11-05T09:06:46.691Z,10.80
2022-11-05T09:09:13.306Z,10.80
2022-11-05T09:12:10.133Z,10.70
2022-11-05T09:14:27.112Z,10.70
2022-11-05T09:16:53.859Z,10.70
2022-11-05T09:19:20.513Z,10.70
2022-11-05T09:21:47.150Z,10.80
2022-11-05T09:24:13.814Z,10.80
2022-11-05T09:26:40.477Z,10.90
2022-11-05T09:29:11.671Z,10.90
2022-11-05T09:31:43.110Z,11.10
2022-11-05T09:34:09.801Z,11.10
2022-11-05T09:36:36.504Z,11.20
2022-11-05T09:39:03.154Z,11.20
2022-11-05T09:41:31.204Z,11.20
2022-11-05T09:43:58.709Z,11.30
2022-11-05T09:46:29.722Z,11.30
2022-11-05T09:49:03.233Z,11.40
2022-11-05T09:51:29.947Z,11.40
2022-11-05T09:53:56.662Z,11.40
2022-11-05T09:56:24.195Z,11.50
2022-11-05T09:58:52.812Z,11.60
2022-11-05T10:01:22.302Z,11.70
2022-11-05T10:03:49.612Z,11.80
2022-11-05T10:06:21.250Z,11.70
2022-11-05T10:08:50.138Z,11.90
2022-11-05T10:11:29.717Z,11.90
2022-11-05T10:14:17.519Z,12.00
2022-11-05T10:16:46.129Z,12.00
2022-11-05T10:19:26.263Z,12.00
2022-11-05T10:22:07.295Z,12.10
2022-11-05T10:24:34.158Z,12.10
2022-11-05T10:27:00.903Z,12.10
2022-11-05T10:29:29.659Z,12.10
2022-11-05T10:31:56.869Z,12.10
2022-11-05T10:34:24.219Z,12.10
2022-11-05T10:36:50.821Z,12.10
2022-11-05T10:39:18.429Z,12.10
2022-11-05T10:41:52.618Z,12.10
2022-11-05T10:44:19.294Z,12.10
2022-11-05T10:47:03.636Z,12.00
2022-11-05T10:49:49.054Z,12.10
2022-11-05T10:52:20.948Z,11.90
2022-11-05T10:54:47.593Z,11.90
2022-11-05T10:57:46.816Z,11.80
2022-11-05T11:00:16.588Z,11.80
2022-11-05T11:02:43.619Z,11.80
2022-11-05T11:05:11.113Z,11.70
2022-11-05T11:07:37.783Z,11.70
2022-11-05T11:10:04.764Z,11.60
2022-11-05T11:12:38.225Z,11.70
2022-11-05T11:15:37.364Z,11.70
2022-11-05T11:18:18.243Z,11.70
2022-11-05T11:20:46.092Z,11.70
2022-11-05T11:23:14.339Z,11.60
2022-11-05T11:25:41.473Z,11.60
2022-11-05T11:28:10.663Z,10.70
2022-11-05T11:30:37.325Z,11.40
2022-11-05T11:33:05.539Z,11.30
2022-11-05T11:35:32.199Z,11.30
2022-11-05T11:38:00.955Z,11.20
2022-11-05T11:40:31.648Z,11.20
2022-11-05T11:43:00.393Z,11.10
2022-11-05T11:45:35.438Z,11.10
2022-11-05T11:48:03.048Z,11.10
2022-11-05T11:50:32.731Z,11.00
2022-11-05T11:53:18.216Z,11.00
2022-11-05T11:56:01.846Z,10.90
2022-11-05T11:58:46.329Z,10.80
2022-11-05T12:01:17.389Z,10.80
2022-11-05T12:03:51.589Z,10.80
2022-11-05T12:06:27.369Z,10.80
2022-11-05T12:09:12.899Z,10.90
2022-11-05T12:11:42.603Z,10.90
2022-11-05T12:14:09.435Z,11.00
2022-11-05T12:16:42.331Z,11.20
2022-11-05T12:19:12.495Z,11.10
2022-11-05T12:21:51.944Z,11.10
2022-11-05T12:24:22.260Z,11.20
2022-11-05T12:27:02.453Z,11.30
2022-11-05T12:29:34.474Z,11.30
2022-11-05T12:32:21.045Z,11.30
2022-11-05T12:34:59.753Z,11.30
2022-11-05T12:37:34.012Z,11.30
2022-11-05T12:40:13.087Z,11.30
2022-11-05T12:42:39.730Z,11.30
2022-11-05T12:45:15.880Z,11.30
2022-11-05T12:47:48.703Z,11.40
2022-11-05T12:50:36.685Z,11.30
2022-11-05T12:53:22.221Z,11.30
2022-11-05T12:55:49.580Z,11.30
2022-11-05T12:58:25.042Z,11.30
2022-11-05T13:00:54.600Z,11.30
2022-11-05T13:03:30.338Z,11.40
2022-11-05T13:06:05.417Z,11.40
2022-11-05T13:08:38.469Z,11.50
2022-11-05T13:11:08.242Z,11.40
2022-11-05T13:13:34.944Z,11.40
2022-11-05T13:16:22.845Z,11.30
2022-11-05T13:18:54.094Z,11.40
2022-11-05T13:21:23.326Z,11.30
2022-11-05T13:23:52.377Z,11.40
2022-11-05T13:26:20.436Z,11.40
2022-11-05T13:29:10.576Z,11.30
2022-11-05T13:31:57.944Z,11.30
2022-11-05T13:34:24.569Z,11.30
2022-11-05T13:37:10.061Z,11.30
2022-11-05T13:39:42.833Z,11.30
2022-11-05T13:42:28.298Z,11.30
2022-11-05T13:45:13.965Z,11.20
2022-11-05T13:47:40.674Z,11.20
2022-11-05T13:50:22.716Z,11.20
2022-11-05T13:52:50.188Z,11.20
2022-11-05T13:55:24.430Z,11.10
2022-11-05T13:57:54.155Z,11.10
2022-11-05T14:00:27.411Z,11.10
2022-11-05T14:02:58.161Z,11.10
2022-11-05T14:05:25.274Z,11.10
2022-11-05T14:07:53.105Z,11.10
2022-11-05T14:10:30.142Z,11.10
2022-11-05T14:12:57.182Z,11.00
2022-11-05T14:15:25.664Z,11.10
2022-11-05T14:17:59.687Z,11.10
2022-11-05T14:20:37.660Z,10.20
2022-11-05T14:23:25.946Z,11.10
2022-11-05T14:25:55.795Z,11.00
2022-11-05T14:28:34.758Z,11.00
2022-11-05T14:31:04.862Z,11.00
2022-11-05T14:33:32.752Z,11.00
2022-11-05T14:36:18.171Z,11.00
2022-11-05T14:38:56.850Z,11.00
2022-11-05T14:41:26.748Z,11.10
2022-11-05T14:43:58.273Z,11.00
2022-11-05T14:46:24.895Z,11.00
2022-11-05T14:48:58.748Z,11.00
2022-11-05T14:51:26.094Z,11.00
2022-11-05T14:54:05.232Z,11.00
2022-11-05T14:56:53.269Z,11.00
2022-11-05T14:59:28.224Z,11.00
2022-11-05T15:01:56.477Z,10.90
2022-11-05T15:04:27.268Z,10.90
2022-11-05T15:07:03.298Z,10.90
2022-11-05T15:09:48.876Z,10.90
2022-11-05T15:12:20.023Z,10.80
2022-11-05T15:14:59.942Z,10.80
2022-11-05T15:17:33.680Z,10.80
2022-11-05T15:20:06.515Z,10.80
2022-11-05T15:22:34.701Z,10.80
2022-11-05T15:25:01.534Z,10.80
2022-11-05T15:27:45.463Z,10.90
2022-11-05T15:30:16.051Z,10.80
2022-11-05T15:32:42.797Z,10.80
2022-11-05T15:35:24.708Z,10.80
2022-11-05T15:37:54.831Z,10.70
2022-11-05T15:40:25.736Z,10.80
2022-11-05T15:43:11.176Z,10.70
2022-11-05T15:45:38.093Z,10.80
2022-11-05T15:48:15.245Z,10.70
2022-11-05T15:50:42.050Z,10.60
2022-11-05T15:53:44.166Z,10.70
2022-11-05T15:56:07.113Z,10.60
2022-11-05T15:58:35.024Z,10.50
2022-11-05T16:01:01.726Z,10.50
2022-11-05T16:03:29.552Z,10.50
2022-11-05T16:05:59.548Z,10.40
2022-11-05T16:08:27.838Z,10.40
2022-11-05T16:10:57.680Z,10.30
2022-11-05T16:13:34.731Z,10.20
2022-11-05T16:16:02.376Z,10.20
2022-11-05T16:18:33.619Z,10.20
2022-11-05T16:21:04.478Z,10.10
2022-11-05T16:23:41.516Z,10.10
2022-11-05T16:26:55.746Z,10.00
2022-11-05T16:29:17.030Z,10.00
2022-11-05T16:31:48.766Z,10.00
2022-11-05T16:34:31.071Z,10.00
2022-11-05T16:36:58.343Z,10.00
2022-11-05T16:39:25.143Z,10.00
2022-11-05T16:41:51.876Z,10.00
2022-11-05T16:44:22.630Z,10.00
2022-11-05T16:46:51.838Z,10.00
2022-11-05T16:49:18.650Z,10.00
2022-11-05T16:51:45.506Z,10.10
2022-11-05T16:54:14.921Z,10.00
2022-11-05T16:56:44.112Z,10.00
2022-11-05T16:59:14.006Z,10.00
2022-11-05T17:01:42.348Z,10.00
2022-11-05T17:04:09.406Z,10.00
2022-11-05T17:06:36.546Z,10.10
2022-11-05T17:09:03.672Z,10.10
2022-11-05T17:11:30.336Z,10.10
2022-11-05T17:13:56.962Z,10.10
2022-11-05T17:16:23.733Z,10.20
2022-11-05T17:18:50.401Z,10.20
2022-11-05T17:21:17.156Z,10.20
2022-11-05T17:23:43.807Z,10.20
2022-11-05T17:26:11.859Z,10.20
2022-11-05T17:28:38.722Z,10.20
2022-11-05T17:31:05.940Z,10.10
2022-11-05T17:33:32.681Z,10.20
2022-11-05T17:35:59.320Z,10.20
2022-11-05T17:38:26.109Z,10.20
2022-11-05T17:40:52.831Z,10.20
2022-11-05T17:43:20.082Z,10.10
2022-11-05T17:45:48.327Z,10.20
2022-11-05T17:48:15.176Z,10.20
2022-11-05T17:50:42.551Z,10.10
2022-11-05T17:53:09.583Z,10.10
2022-11-05T17:55:36.471Z,10.00
2022-11-05T17:58:03.189Z,10.00
2022-11-05T18:00:29.790Z,9.90
2022-11-05T18:02:56.520Z,9.80
2022-11-05T18:05:23.592Z,9.80
2022-11-05T18:07:50.636Z,9.80
2022-11-05T18:10:17.330Z,9.80
2022-11-05T18:12:44.083Z,9.80
2022-11-05T18:15:10.821Z,9.80
2022-11-05T18:17:37.545Z,9.80
2022-11-05T18:20:04.820Z,9.80
2022-11-05T18:22:31.550Z,9.80
2022-11-05T18:24:58.201Z,9.70
2022-11-05T18:27:27.539Z,9.80
2022-11-05T18:29:54.475Z,9.80
2022-11-05T18:32:21.100Z,9.80
2022-11-05T18:34:47.727Z,9.80
2022-11-05T18:37:14.407Z,9.80
2022-11-05T18:39:41.057Z,9.80
2022-11-05T18:42:07.710Z,9.80
2022-11-05T18:44:38.933Z,9.90
2022-11-05T18:47:06.916Z,9.80
2022-11-05T18:49:33.818Z,9.80
2022-11-05T18:52:00.608Z,9.80
2022-11-05T18:54:27.309Z,9.80
2022-11-05T18:56:53.951Z,9.80
2022-11-05T18:59:38.709Z,9.80
2022-11-05T19:02:06.459Z,9.80
2022-11-05T19:04:34.699Z,9.80
2022-11-05T19:07:04.822Z,9.80
2022-11-05T19:09:32.141Z,9.80
2022-11-05T19:11:58.749Z,9.70
2022-11-05T19:14:25.435Z,9.70
2022-11-05T19:16:52.083Z,9.70
2022-11-05T19:19:18.846Z,9.70
2022-11-05T19:21:45.684Z,9.70
2022-11-05T19:24:16.757Z,9.60
2022-11-05T19:26:43.805Z,9.60
2022-11-05T19:29:10.520Z,9.50
2022-11-05T19:31:37.244Z,9.50
2022-11-05T19:34:05.394Z,9.40
2022-11-05T19:36:32.446Z,9.40
2022-11-05T19:39:00.219Z,9.20
2022-11-05T19:41:26.947Z,9.20
2022-11-05T19:43:58.093Z,9.10
2022-11-05T19:46:24.950Z,9.10
2022-11-05T19:48:51.718Z,9.00
2022-11-05T19:51:22.467Z,9.00
2022-11-05T19:53:49.190Z,8.90
2022-11-05T19:56:19.976Z,8.80
2022-11-05T19:58:46.706Z,8.80
2022-11-05T20:01:13.582Z,8.80
2022-11-05T20:03:40.411Z,8.80
2022-11-05T20:06:10.833Z,8.70
2022-11-05T20:08:59.366Z,8.70
2022-11-05T20:11:24.185Z,8.80
2022-11-05T20:13:50.821Z,8.80
2022-11-05T20:16:24.764Z,8.70
2022-11-05T20:18:51.514Z,8.70
2022-11-05T20:21:18.324Z,8.70
2022-11-05T20:23:45.036Z,8.70
2022-11-05T20:26:11.800Z,8.60
2022-11-05T20:28:38.718Z,8.70
2022-11-05T20:31:18.242Z,8.60
2022-11-05T20:33:45.178Z,8.70
2022-11-05T20:36:29.902Z,8.60
2022-11-05T20:38:58.063Z,8.50
2022-11-05T20:41:25.159Z,8.60
2022-11-05T20:43:51.846Z,8.60
2022-11-05T20:46:19.271Z,8.50
2022-11-05T20:48:46.257Z,8.60
2022-11-05T20:51:14.101Z,8.50
2022-11-05T20:53:41.073Z,8.50
2022-11-05T20:56:13.633Z,8.40
2022-11-05T20:58:40.340Z,8.50
2022-11-05T21:01:08.313Z,8.50
2022-11-05T21:03:35.054Z,8.40
2022-11-05T21:06:04.076Z,8.40
2022-11-05T21:08:30.716Z,8.40
2022-11-05T21:10:57.533Z,8.30
2022-11-05T21:13:24.209Z,8.30
2022-11-05T21:15:51.649Z,8.30
2022-11-05T21:18:18.541Z,8.30
2022-11-05T21:20:45.436Z,8.20
2022-11-05T21:23:12.349Z,8.10
2022-11-05T21:25:39.738Z,8.20
2022-11-05T21:28:09.513Z,8.10
2022-11-05T21:30:36.594Z,8.10
2022-11-05T21:33:04.052Z,8.00
2022-11-05T21:35:31.000Z,8.10
2022-11-05T21:37:57.744Z,8.00
2022-11-05T21:40:24.403Z,8.00
2022-11-05T21:42:51.020Z,8.00
2022-11-05T21:45:17.720Z,8.00
2022-11-05T21:47:44.418Z,7.90
2022-11-05T21:50:11.109Z,7.90
2022-11-05T21:52:56.649Z,7.80
2022-11-05T21:55:41.681Z,7.80
2022-11-05T21:58:33.986Z,7.80
2022-11-05T22:01:00.854Z,7.80
2022-11-05T22:03:27.637Z,7.80
2022-11-05T22:05:55.506Z,7.80
2022-11-05T22:08:22.243Z,7.70
2022-11-05T22:10:48.899Z,7.70
2022-11-05T22:13:15.520Z,7.70
2022-11-05T22:15:42.558Z,7.70
2022-11-05T22:18:09.472Z,7.70
2022-11-05T22:20:37.576Z,7.60
2022-11-05T22:23:07.411Z,7.60
2022-11-05T22:25:36.745Z,7.60
2022-11-05T22:28:03.589Z,7.60
2022-11-05T22:30:32.658Z,7.50
2022-11-05T22:32:59.292Z,7.60
2022-11-05T22:35:26.112Z,7.50
2022-11-05T22:37:52.731Z,7.50
2022-11-05T22:40:22.201Z,7.40
2022-11-05T22:42:50.518Z,7.40
2022-11-05T22:45:17.197Z,7.40
2022-11-05T22:47:43.855Z,7.30
2022-11-05T22:50:10.483Z,7.30
2022-11-05T22:52:37.103Z,7.30
2022-11-05T22:55:06.131Z,7.30
2022-11-05T22:57:32.863Z,7.30
2022-11-05T22:59:59.457Z,7.30
2022-11-05T23:02:26.129Z,7.30
2022-11-05T23:04:52.832Z,7.20
2022-11-05T23:07:38.233Z,7.20
2022-11-05T23:10:23.233Z,7.20
2022-11-05T23:12:49.830Z,7.10
2022-11-05T23:15:34.873Z,7.20
2022-11-05T23:18:20.039Z,7.20
2022-11-05T23:21:05.349Z,7.10
2022-11-05T23:23:50.435Z,7.10
2022-11-05T23:26:35.448Z,7.10
2022-11-05T23:29:02.050Z,7.10
2022-11-05T23:31:47.100Z,7.10
2022-11-05T23:34:13.795Z,7.10
2022-11-05T23:36:59.172Z,7.00
2022-11-05T23:39:25.770Z,7.00
2022-11-05T23:42:11.202Z,7.00
2022-11-05T23:44:56.489Z,7.10
2022-11-05T23:47:41.560Z,7.00
2022-11-05T23:50:08.470Z,7.00
2022-11-05T23:52:35.199Z,7.00
2022-11-05T23:55:01.799Z,7.00
2022-11-05T23:57:28.445Z,7.00
2022-11-05T23:59:55.036Z,6.90
